createdAt,value
2018-12-15T00:01:34.260Z,1.30
2018-12-15T00:04:02.914Z,1.30
2018-12-15T00:06:31.587Z,1.30
2018-12-15T00:09:00.224Z,1.30
2018-12-15T00:11:28.848Z,1.30
2018-12-15T00:13:57.493Z,1.30
2018-12-15T00:16:26.168Z,1.20
2018-12-15T00:18:54.785Z,1.30
2018-12-15T00:21:23.427Z,1.30
2018-12-15T00:23:52.055Z,1.30
2018-12-15T00:26:20.687Z,1.20
2018-12-15T00:28:49.447Z,1.30
2018-12-15T00:31:18.060Z,1.30
2018-12-15T00:33:46.709Z,1.20
2018-12-15T00:36:15.347Z,1.20
2018-12-15T00:38:44.044Z,1.20
2018-12-15T00:41:12.702Z,1.20
2018-12-15T00:43:41.326Z,1.20
2018-12-15T00:46:09.953Z,1.20
2018-12-15T00:48:38.580Z,1.20
2018-12-15T00:51:07.225Z,1.20
2018-12-15T00:53:35.860Z,1.10
2018-12-15T00:56:04.488Z,1.00
2018-12-15T00:58:33.166Z,1.00
2018-12-15T01:01:01.815Z,1.00
2018-12-15T01:03:30.474Z,1.00
2018-12-15T01:05:59.083Z,1.00
2018-12-15T01:08:27.704Z,1.00
2018-12-15T01:10:56.311Z,0.90
2018-12-15T01:13:24.940Z,0.90
2018-12-15T01:15:53.549Z,0.90
2018-12-15T01:18:22.547Z,0.90
2018-12-15T01:20:51.194Z,0.90
2018-12-15T01:23:19.834Z,0.90
2018-12-15T01:25:48.468Z,0.90
2018-12-15T01:28:17.086Z,0.90
2018-12-15T01:30:45.697Z,0.90
2018-12-15T01:33:14.316Z,0.90
2018-12-15T01:35:42.944Z,0.80
2018-12-15T01:38:11.591Z,0.80
2018-12-15T01:40:40.235Z,0.80
2018-12-15T01:43:08.856Z,0.70
2018-12-15T01:45:37.471Z,0.70
2018-12-15T01:48:06.099Z,0.70
2018-12-15T01:50:34.735Z,0.60
2018-12-15T01:53:03.377Z,0.60
2018-12-15T01:55:32.043Z,0.60
2018-12-15T01:58:00.699Z,0.60
2018-12-15T02:00:29.355Z,0.60
2018-12-15T02:02:57.967Z,0.60
2018-12-15T02:05:26.582Z,0.60
2018-12-15T02:07:55.215Z,0.50
2018-12-15T02:10:23.875Z,0.50
2018-12-15T02:12:52.564Z,0.50
2018-12-15T02:15:21.183Z,0.50
2018-12-15T02:17:49.811Z,0.50
2018-12-15T02:20:18.498Z,0.50
2018-12-15T02:22:47.192Z,0.60
2018-12-15T02:25:15.824Z,0.40
2018-12-15T02:27:44.451Z,0.50
2018-12-15T02:30:13.151Z,0.40
2018-12-15T02:32:42.745Z,0.30
2018-12-15T02:35:11.361Z,0.30
2018-12-15T02:37:39.977Z,0.20
2018-12-15T02:40:08.640Z,0.30
2018-12-15T02:42:37.252Z,0.30
2018-12-15T02:45:05.964Z,0.40
2018-12-15T02:47:41.199Z,0.50
2018-12-15T02:50:05.416Z,0.50
2018-12-15T02:52:34.053Z,0.50
2018-12-15T02:55:02.705Z,0.50
2018-12-15T02:57:31.361Z,0.40
2018-12-15T02:59:59.964Z,0.40
2018-12-15T03:02:28.652Z,0.40
2018-12-15T03:04:57.276Z,0.40
2018-12-15T03:07:25.912Z,0.30
2018-12-15T03:09:54.534Z,0.40
2018-12-15T03:12:23.156Z,0.40
2018-12-15T03:14:51.804Z,0.40
2018-12-15T03:17:20.423Z,0.40
2018-12-15T03:19:49.071Z,0.40
2018-12-15T03:22:17.732Z,0.40
2018-12-15T03:24:46.350Z,0.40
2018-12-15T03:27:14.982Z,0.30
2018-12-15T03:29:43.601Z,0.40
2018-12-15T03:32:12.223Z,0.40
2018-12-15T03:34:40.865Z,0.50
2018-12-15T03:37:09.527Z,0.50
2018-12-15T03:39:38.196Z,0.60
2018-12-15T03:42:06.860Z,0.60
2018-12-15T03:44:35.499Z,0.60
2018-12-15T03:47:04.166Z,0.60
2018-12-15T03:49:32.796Z,0.50
2018-12-15T03:52:01.432Z,0.50
2018-12-15T03:54:30.052Z,0.50
2018-12-15T03:56:58.721Z,0.50
2018-12-15T03:59:27.595Z,0.50
2018-12-15T04:01:56.224Z,0.40
2018-12-15T04:04:25.201Z,0.40
2018-12-15T04:06:53.839Z,0.40
2018-12-15T04:09:22.875Z,0.30
2018-12-15T04:11:51.548Z,0.30
2018-12-15T04:14:20.187Z,0.30
2018-12-15T04:16:48.810Z,0.30
2018-12-15T04:19:17.423Z,0.30
2018-12-15T04:21:46.035Z,0.30
2018-12-15T04:24:15.127Z,0.20
2018-12-15T04:26:43.753Z,0.20
2018-12-15T04:29:12.930Z,0.20
2018-12-15T04:31:41.583Z,0.10
2018-12-15T04:34:10.219Z,0.10
2018-12-15T04:36:39.006Z,0.10
2018-12-15T04:39:07.648Z,0.10
2018-12-15T04:41:36.280Z,0.10
2018-12-15T04:44:05.094Z,0.10
2018-12-15T04:46:33.716Z,0.10
2018-12-15T04:49:02.379Z,0.10
2018-12-15T04:51:31.081Z,0.10
2018-12-15T04:53:59.747Z,0.10
2018-12-15T04:56:28.392Z,0.20
2018-12-15T04:58:57.092Z,0.20
2018-12-15T05:01:25.716Z,0.10
2018-12-15T05:03:54.358Z,0.10
2018-12-15T05:06:22.998Z,0.00
2018-12-15T05:08:51.680Z,0.00
2018-12-15T05:11:20.338Z,0.00
2018-12-15T05:13:48.988Z,-0.10
2018-12-15T05:16:17.651Z,0.00
2018-12-15T05:18:46.317Z,-0.10
2018-12-15T05:21:14.932Z,0.00
2018-12-15T05:23:43.561Z,0.00
2018-12-15T05:26:12.251Z,0.00
2018-12-15T05:28:40.873Z,0.00
2018-12-15T05:31:09.491Z,0.00
2018-12-15T05:33:38.095Z,0.00
2018-12-15T05:36:06.727Z,0.00
2018-12-15T05:38:35.364Z,-0.10
2018-12-15T05:41:04.061Z,-0.10
2018-12-15T05:43:32.715Z,-0.20
2018-12-15T05:46:01.360Z,-0.20
2018-12-15T05:48:29.974Z,-0.20
2018-12-15T05:50:58.605Z,-0.30
2018-12-15T05:53:27.232Z,-0.20
2018-12-15T05:55:55.865Z,-0.30
2018-12-15T05:58:24.509Z,-0.40
2018-12-15T06:00:53.176Z,-0.40
2018-12-15T06:03:21.784Z,-0.50
2018-12-15T06:05:50.403Z,-0.50
2018-12-15T06:08:19.037Z,-0.40
2018-12-15T06:10:47.671Z,-0.40
2018-12-15T06:13:16.299Z,-0.40
2018-12-15T06:15:44.898Z,-0.50
2018-12-15T06:18:13.512Z,-0.50
2018-12-15T06:20:42.184Z,-0.60
2018-12-15T06:23:10.791Z,-0.60
2018-12-15T06:25:39.420Z,-0.70
2018-12-15T06:28:08.042Z,-0.70
2018-12-15T06:30:36.716Z,-0.70
2018-12-15T06:33:05.328Z,-0.70
2018-12-15T06:35:34.000Z,-0.80
2018-12-15T06:38:02.651Z,-0.80
2018-12-15T06:40:31.288Z,-0.70
2018-12-15T06:42:59.920Z,-0.70
2018-12-15T06:45:28.548Z,-0.70
2018-12-15T06:47:57.161Z,-0.80
2018-12-15T06:50:25.805Z,-0.80
2018-12-15T06:52:54.462Z,-0.80
2018-12-15T06:55:23.101Z,-0.80
2018-12-15T06:57:51.731Z,-0.90
2018-12-15T07:00:20.375Z,-0.80
2018-12-15T07:02:49.068Z,-0.80
2018-12-15T07:05:17.803Z,-0.90
2018-12-15T07:07:46.412Z,-0.90
2018-12-15T07:10:15.061Z,-0.90
2018-12-15T07:12:43.675Z,-0.90
2018-12-15T07:15:12.315Z,-0.80
2018-12-15T07:17:40.956Z,-0.80
2018-12-15T07:20:09.630Z,-0.80
2018-12-15T07:22:38.284Z,-0.70
2018-12-15T07:25:06.940Z,-0.70
2018-12-15T07:27:35.587Z,-0.70
2018-12-15T07:30:04.787Z,-0.90
2018-12-15T07:32:33.430Z,-0.80
2018-12-15T07:35:02.056Z,-0.80
2018-12-15T07:37:30.687Z,-0.70
2018-12-15T07:39:59.339Z,-0.70
2018-12-15T07:42:28.073Z,-0.70
2018-12-15T07:44:56.664Z,-0.60
2018-12-15T07:47:25.269Z,-0.60
2018-12-15T07:49:53.879Z,-0.60
2018-12-15T07:52:22.451Z,-0.50
2018-12-15T07:54:51.095Z,-0.40
2018-12-15T07:57:19.672Z,-0.30
2018-12-15T07:59:48.255Z,-0.20
2018-12-15T08:02:17.279Z,-0.20
2018-12-15T08:04:45.974Z,-0.20
2018-12-15T08:07:14.601Z,-0.10
2018-12-15T08:09:43.478Z,0.00
2018-12-15T08:12:17.361Z,0.00
2018-12-15T08:14:46.075Z,0.10
2018-12-15T08:17:14.667Z,0.20
2018-12-15T08:19:43.278Z,0.20
2018-12-15T08:22:12.210Z,0.30
2018-12-15T08:24:44.756Z,0.40
2018-12-15T08:27:13.940Z,0.50
2018-12-15T08:29:43.488Z,0.50
2018-12-15T08:32:14.131Z,0.60
2018-12-15T08:34:42.955Z,0.70
2018-12-15T08:37:12.299Z,0.90
2018-12-15T08:39:42.133Z,1.10
2018-12-15T08:42:12.407Z,1.20
2018-12-15T08:44:42.876Z,1.40
2018-12-15T08:47:14.016Z,1.50
2018-12-15T08:49:47.287Z,1.70
2018-12-15T08:52:19.652Z,1.80
2018-12-15T08:54:48.411Z,1.80
2018-12-15T08:57:25.715Z,1.90
2018-12-15T08:59:57.275Z,2.00
2018-12-15T09:02:26.831Z,2.00
2018-12-15T09:04:58.551Z,2.10
2018-12-15T09:07:28.522Z,2.20
2018-12-15T09:09:58.319Z,2.10
2018-12-15T09:12:27.891Z,2.20
2018-12-15T09:14:58.667Z,2.20
2018-12-15T09:17:27.551Z,2.40
2018-12-15T09:19:57.267Z,2.40
2018-12-15T09:22:27.930Z,2.40
2018-12-15T09:24:59.614Z,2.50
2018-12-15T09:27:34.032Z,2.70
2018-12-15T09:30:06.551Z,2.50
2018-12-15T09:32:36.180Z,2.60
2018-12-15T09:35:07.560Z,2.60
2018-12-15T09:37:38.975Z,2.60
2018-12-15T09:40:10.812Z,2.70
2018-12-15T09:42:41.054Z,2.70
2018-12-15T09:45:11.343Z,2.70
2018-12-15T09:47:44.542Z,2.70
2018-12-15T09:50:14.751Z,2.80
2018-12-15T09:52:44.279Z,2.80
2018-12-15T09:55:14.211Z,2.90
2018-12-15T09:57:43.219Z,2.90
2018-12-15T10:00:12.251Z,3.00
2018-12-15T10:02:44.695Z,3.10
2018-12-15T10:05:13.406Z,3.20
2018-12-15T10:07:42.899Z,3.20
2018-12-15T10:10:12.496Z,3.40
2018-12-15T10:12:42.088Z,3.50
2018-12-15T10:15:11.842Z,3.60
2018-12-15T10:17:42.650Z,3.70
2018-12-15T10:20:13.395Z,3.70
2018-12-15T10:22:42.576Z,3.90
2018-12-15T10:25:11.244Z,4.00
2018-12-15T10:27:39.863Z,4.20
2018-12-15T10:30:14.462Z,4.20
2018-12-15T10:32:48.537Z,4.30
2018-12-15T10:35:17.213Z,4.50
2018-12-15T10:37:45.868Z,4.50
2018-12-15T10:40:14.519Z,4.80
2018-12-15T10:42:43.132Z,5.00
2018-12-15T10:45:11.824Z,5.10
2018-12-15T10:47:40.556Z,5.30
2018-12-15T10:50:10.300Z,5.30
2018-12-15T10:52:38.923Z,5.50
2018-12-15T10:55:09.084Z,5.40
2018-12-15T10:57:37.835Z,5.40
2018-12-15T11:00:13.913Z,5.50
2018-12-15T11:02:42.548Z,5.50
2018-12-15T11:05:11.209Z,5.60
2018-12-15T11:07:39.855Z,5.80
2018-12-15T11:10:08.591Z,5.70
2018-12-15T11:12:37.215Z,5.80
2018-12-15T11:15:07.124Z,5.80
2018-12-15T11:17:35.768Z,5.90
2018-12-15T11:20:05.068Z,5.90
2018-12-15T11:22:34.105Z,6.00
2018-12-15T11:25:02.860Z,6.10
2018-12-15T11:27:31.495Z,6.20
2018-12-15T11:30:00.128Z,6.30
2018-12-15T11:32:28.809Z,6.40
2018-12-15T11:34:57.404Z,6.40
2018-12-15T11:37:26.018Z,6.40
2018-12-15T11:39:55.222Z,6.30
2018-12-15T11:42:24.310Z,6.30
2018-12-15T11:44:52.947Z,6.20
2018-12-15T11:47:21.567Z,6.10
2018-12-15T11:49:50.169Z,6.10
2018-12-15T11:52:18.772Z,6.10
2018-12-15T11:54:47.440Z,6.10
2018-12-15T11:57:16.070Z,6.10
2018-12-15T11:59:44.711Z,6.20
2018-12-15T12:02:13.296Z,6.20
2018-12-15T12:04:41.890Z,6.30
2018-12-15T12:07:10.503Z,6.40
2018-12-15T12:09:39.122Z,6.50
2018-12-15T12:12:08.398Z,6.60
2018-12-15T12:14:36.999Z,6.60
2018-12-15T12:17:05.646Z,6.60
2018-12-15T12:19:34.262Z,6.60
2018-12-15T12:22:14.954Z,6.60
2018-12-15T12:24:43.666Z,6.60
2018-12-15T12:27:12.325Z,6.60
2018-12-15T12:29:40.951Z,6.60
2018-12-15T12:32:09.574Z,6.60
2018-12-15T12:34:38.183Z,6.60
2018-12-15T12:37:06.823Z,6.70
2018-12-15T12:39:35.487Z,6.70
2018-12-15T12:42:04.107Z,6.70
2018-12-15T12:44:32.723Z,6.80
2018-12-15T12:47:01.342Z,6.80
2018-12-15T12:49:29.944Z,6.70
2018-12-15T12:51:58.561Z,6.70
2018-12-15T12:54:27.155Z,6.70
2018-12-15T12:56:55.760Z,6.70
2018-12-15T12:59:24.344Z,6.70
2018-12-15T13:01:52.958Z,6.70
2018-12-15T13:04:21.565Z,6.70
2018-12-15T13:06:51.401Z,6.70
2018-12-15T13:09:20.244Z,6.80
2018-12-15T13:11:48.864Z,6.80
2018-12-15T13:14:17.519Z,6.80
2018-12-15T13:16:46.143Z,6.80
2018-12-15T13:19:14.945Z,6.70
2018-12-15T13:21:43.727Z,6.80
2018-12-15T13:24:12.330Z,6.60
2018-12-15T13:26:42.126Z,6.60
2018-12-15T13:29:16.175Z,6.60
2018-12-15T13:31:45.139Z,6.60
2018-12-15T13:34:13.763Z,6.60
2018-12-15T13:36:42.535Z,6.60
2018-12-15T13:39:11.159Z,6.60
2018-12-15T13:41:40.300Z,6.60
2018-12-15T13:44:09.035Z,6.60
2018-12-15T13:46:37.696Z,6.60
2018-12-15T13:49:06.299Z,6.60
2018-12-15T13:51:34.908Z,6.70
2018-12-15T13:54:03.574Z,6.60
2018-12-15T13:56:32.258Z,6.70
2018-12-15T13:59:00.924Z,6.60
2018-12-15T14:01:29.567Z,6.60
2018-12-15T14:03:58.188Z,6.50
2018-12-15T14:06:26.819Z,6.50
2018-12-15T14:08:55.418Z,6.50
2018-12-15T14:11:24.016Z,6.50
2018-12-15T14:13:52.618Z,6.50
2018-12-15T14:16:21.280Z,6.50
2018-12-15T14:18:49.893Z,6.50
2018-12-15T14:21:23.591Z,6.40
2018-12-15T14:23:52.211Z,6.40
2018-12-15T14:26:20.851Z,6.30
2018-12-15T14:28:49.463Z,6.30
2018-12-15T14:31:18.067Z,6.30
2018-12-15T14:33:46.659Z,6.30
2018-12-15T14:36:15.307Z,6.30
2018-12-15T14:38:43.995Z,6.30
2018-12-15T14:41:12.623Z,6.20
2018-12-15T14:43:41.224Z,6.20
2018-12-15T14:46:10.378Z,6.30
2018-12-15T14:48:38.983Z,6.30
2018-12-15T14:51:07.956Z,6.30
2018-12-15T14:53:36.551Z,6.10
2018-12-15T14:56:05.368Z,6.10
2018-12-15T14:58:33.985Z,6.00
2018-12-15T15:01:02.660Z,6.00
2018-12-15T15:03:31.262Z,5.80
2018-12-15T15:06:00.148Z,5.70
2018-12-15T15:08:28.830Z,5.50
2018-12-15T15:10:57.456Z,5.40
2018-12-15T15:13:26.059Z,5.40
2018-12-15T15:15:54.660Z,5.50
2018-12-15T15:18:23.299Z,5.40
2018-12-15T15:20:51.919Z,5.40
2018-12-15T15:23:22.093Z,5.50
2018-12-15T15:25:50.728Z,5.50
2018-12-15T15:28:19.331Z,5.50
2018-12-15T15:30:47.959Z,5.50
2018-12-15T15:33:16.583Z,5.40
2018-12-15T15:35:45.195Z,5.40
2018-12-15T15:38:13.876Z,5.40
2018-12-15T15:40:42.495Z,5.40
2018-12-15T15:43:11.082Z,5.40
2018-12-15T15:45:39.700Z,5.30
2018-12-15T15:48:08.297Z,5.40
2018-12-15T15:50:37.879Z,5.40
2018-12-15T15:53:06.629Z,5.40
2018-12-15T15:55:35.254Z,5.40
2018-12-15T15:58:03.882Z,5.40
2018-12-15T16:00:32.516Z,5.30
2018-12-15T16:03:01.131Z,5.20
2018-12-15T16:05:29.750Z,5.30
2018-12-15T16:07:58.413Z,5.20
2018-12-15T16:10:27.059Z,5.20
2018-12-15T16:12:55.689Z,5.20
2018-12-15T16:15:24.301Z,5.00
2018-12-15T16:17:52.895Z,4.90
2018-12-15T16:20:21.567Z,5.00
2018-12-15T16:22:50.220Z,5.00
2018-12-15T16:25:18.891Z,5.00
2018-12-15T16:27:47.507Z,4.90
2018-12-15T16:30:16.184Z,4.90
2018-12-15T16:32:44.935Z,4.90
2018-12-15T16:35:13.620Z,4.90
2018-12-15T16:37:42.240Z,4.80
2018-12-15T16:40:10.923Z,4.80
2018-12-15T16:42:39.546Z,4.80
2018-12-15T16:45:10.228Z,4.80
2018-12-15T16:47:38.880Z,4.70
2018-12-15T16:50:11.453Z,4.80
2018-12-15T16:52:40.680Z,4.70
2018-12-15T16:55:09.799Z,4.80
2018-12-15T16:57:38.470Z,4.70
2018-12-15T17:00:11.103Z,4.80
2018-12-15T17:02:39.723Z,4.90
2018-12-15T17:05:08.735Z,4.90
2018-12-15T17:07:37.408Z,5.00
2018-12-15T17:10:07.676Z,5.00
2018-12-15T17:12:36.294Z,5.00
2018-12-15T17:15:06.817Z,5.00
2018-12-15T17:17:35.455Z,5.10
2018-12-15T17:20:04.741Z,5.10
2018-12-15T17:22:33.352Z,5.10
2018-12-15T17:25:01.977Z,5.10
2018-12-15T17:27:31.187Z,5.20
2018-12-15T17:29:59.829Z,5.10
2018-12-15T17:32:28.454Z,5.20
2018-12-15T17:34:57.068Z,5.20
2018-12-15T17:37:25.712Z,5.10
2018-12-15T17:39:54.380Z,5.20
2018-12-15T17:42:23.002Z,5.10
2018-12-15T17:44:51.612Z,5.20
2018-12-15T17:47:20.215Z,5.10
2018-12-15T17:49:48.827Z,5.20
2018-12-15T17:52:17.450Z,5.20
2018-12-15T17:54:46.036Z,5.20
2018-12-15T17:57:14.634Z,5.20
2018-12-15T17:59:43.236Z,5.20
2018-12-15T18:02:11.853Z,5.20
2018-12-15T18:04:40.468Z,5.20
2018-12-15T18:07:09.121Z,5.20
2018-12-15T18:09:37.739Z,5.20
2018-12-15T18:12:06.339Z,5.20
2018-12-15T18:14:34.947Z,5.20
2018-12-15T18:17:03.555Z,5.20
2018-12-15T18:19:32.889Z,5.20
2018-12-15T18:22:01.500Z,5.20
2018-12-15T18:24:30.116Z,5.20
2018-12-15T18:26:58.719Z,5.20
2018-12-15T18:29:27.309Z,5.30
2018-12-15T18:31:55.891Z,5.20
2018-12-15T18:34:24.515Z,5.20
2018-12-15T18:36:53.152Z,5.20
2018-12-15T18:39:21.763Z,5.10
2018-12-15T18:41:50.375Z,5.10
2018-12-15T18:44:19.011Z,5.00
2018-12-15T18:46:47.631Z,5.00
2018-12-15T18:49:16.259Z,5.00
2018-12-15T18:51:44.863Z,5.00
2018-12-15T18:54:13.546Z,5.00
2018-12-15T18:56:42.465Z,5.00
2018-12-15T18:59:11.269Z,5.00
2018-12-15T19:01:39.908Z,5.10
2018-12-15T19:04:08.545Z,5.10
2018-12-15T19:06:37.183Z,5.10
2018-12-15T19:09:07.692Z,5.10
2018-12-15T19:11:36.328Z,5.10
2018-12-15T19:14:04.960Z,5.10
2018-12-15T19:16:33.563Z,5.10
2018-12-15T19:19:02.218Z,5.10
2018-12-15T19:21:30.836Z,5.10
2018-12-15T19:23:59.443Z,5.00
2018-12-15T19:26:28.069Z,5.00
2018-12-15T19:28:56.717Z,5.00
2018-12-15T19:31:25.379Z,5.00
2018-12-15T19:33:54.011Z,5.00
2018-12-15T19:36:22.619Z,5.00
2018-12-15T19:38:51.267Z,5.10
2018-12-15T19:41:19.883Z,5.10
2018-12-15T19:43:48.654Z,5.10
2018-12-15T19:46:17.300Z,5.10
2018-12-15T19:48:45.931Z,5.10
2018-12-15T19:51:14.570Z,5.00
2018-12-15T19:53:43.176Z,4.90
2018-12-15T19:56:11.777Z,4.90
2018-12-15T19:58:40.435Z,4.80
2018-12-15T20:01:09.077Z,4.90
2018-12-15T20:03:37.803Z,4.80
2018-12-15T20:06:06.445Z,4.80
2018-12-15T20:08:35.104Z,4.80
2018-12-15T20:11:03.748Z,4.80
2018-12-15T20:13:32.371Z,4.90
2018-12-15T20:16:00.985Z,4.90
2018-12-15T20:18:29.645Z,4.90
2018-12-15T20:20:58.240Z,4.90
2018-12-15T20:23:26.866Z,4.90
2018-12-15T20:25:55.498Z,4.90
2018-12-15T20:28:24.139Z,5.00
2018-12-15T20:30:52.755Z,5.00
2018-12-15T20:33:21.450Z,5.00
2018-12-15T20:35:50.097Z,5.00
2018-12-15T20:38:18.793Z,5.00
2018-12-15T20:40:47.420Z,5.10
2018-12-15T20:43:16.068Z,5.10
2018-12-15T20:45:44.708Z,5.10
2018-12-15T20:48:13.309Z,5.10
2018-12-15T20:50:41.935Z,5.10
2018-12-15T20:53:10.703Z,5.10
2018-12-15T20:55:39.356Z,5.10
2018-12-15T20:58:07.975Z,5.20
2018-12-15T21:00:36.598Z,5.10
2018-12-15T21:03:05.227Z,5.20
2018-12-15T21:05:36.739Z,5.20
2018-12-15T21:08:04.556Z,5.20
2018-12-15T21:10:33.202Z,5.20
2018-12-15T21:13:01.844Z,5.20
2018-12-15T21:15:34.210Z,5.20
2018-12-15T21:18:02.875Z,5.20
2018-12-15T21:20:31.527Z,5.20
2018-12-15T21:23:00.183Z,5.20
2018-12-15T21:25:28.839Z,5.20
2018-12-15T21:27:57.451Z,5.20
2018-12-15T21:30:26.090Z,5.20
2018-12-15T21:32:54.752Z,5.20
2018-12-15T21:35:23.390Z,5.20
2018-12-15T21:37:52.011Z,5.20
2018-12-15T21:40:20.670Z,5.20
2018-12-15T21:42:49.339Z,5.10
2018-12-15T21:45:17.976Z,5.10
2018-12-15T21:47:46.608Z,5.00
2018-12-15T21:50:15.237Z,5.00
2018-12-15T21:52:44.347Z,5.00
2018-12-15T21:55:13.295Z,5.10
2018-12-15T21:57:41.956Z,5.00
2018-12-15T22:00:10.929Z,5.10
2018-12-15T22:02:39.616Z,5.10
2018-12-15T22:05:08.276Z,5.10
2018-12-15T22:07:37.969Z,5.10
2018-12-15T22:10:07.893Z,5.10
2018-12-15T22:12:36.531Z,5.10
2018-12-15T22:15:05.556Z,5.00
2018-12-15T22:17:34.250Z,5.00
2018-12-15T22:20:03.462Z,5.00
2018-12-15T22:22:32.123Z,5.00
2018-12-15T22:25:00.770Z,5.00
2018-12-15T22:27:29.375Z,4.90
2018-12-15T22:29:58.036Z,5.00
2018-12-15T22:32:26.639Z,5.00
2018-12-15T22:34:55.293Z,5.00
2018-12-15T22:37:23.933Z,5.00
2018-12-15T22:39:52.655Z,5.00
2018-12-15T22:42:21.315Z,5.00
2018-12-15T22:44:49.959Z,5.00
2018-12-15T22:47:18.607Z,5.00
2018-12-15T22:49:47.237Z,5.00
2018-12-15T22:52:15.860Z,4.90
2018-12-15T22:54:44.495Z,4.90
2018-12-15T22:57:13.132Z,4.80
2018-12-15T22:59:41.743Z,4.70
2018-12-15T23:02:10.364Z,4.70
2018-12-15T23:04:39.037Z,4.80
2018-12-15T23:07:07.659Z,4.80
2018-12-15T23:09:36.328Z,4.90
2018-12-15T23:12:05.143Z,4.90
2018-12-15T23:14:33.793Z,4.90
2018-12-15T23:17:02.436Z,5.00
2018-12-15T23:19:31.081Z,5.00
2018-12-15T23:21:59.716Z,5.00
2018-12-15T23:24:28.412Z,5.00
2018-12-15T23:26:56.978Z,5.10
2018-12-15T23:29:25.547Z,5.00
2018-12-15T23:31:54.131Z,5.00
2018-12-15T23:34:22.712Z,5.00
2018-12-15T23:36:51.294Z,5.10
2018-12-15T23:39:19.896Z,5.10
2018-12-15T23:41:48.455Z,5.00
2018-12-15T23:44:17.079Z,5.00
2018-12-15T23:46:45.686Z,5.00
2018-12-15T23:49:14.261Z,5.00
2018-12-15T23:51:42.885Z,5.00
2018-12-15T23:54:11.475Z,5.00
2018-12-15T23:56:40.026Z,5.00
2018-12-15T23:59:08.581Z,4.90
